createdAt,value
2019-03-09T00:00:48.638Z,1007.15
2019-03-09T00:01:48.653Z,1007.11
2019-03-09T00:02:48.668Z,1007.05
2019-03-09T00:03:48.684Z,1007.07
2019-03-09T00:04:48.699Z,1007.02
2019-03-09T00:05:48.713Z,1007.04
2019-03-09T00:06:48.729Z,1007.01
2019-03-09T00:07:48.745Z,1007.01
2019-03-09T00:08:48.760Z,1006.99
2019-03-09T00:09:48.775Z,1006.99
2019-03-09T00:10:48.791Z,1006.97
2019-03-09T00:11:48.806Z,1006.99
2019-03-09T00:12:48.822Z,1006.94
2019-03-09T00:13:48.836Z,1006.9
2019-03-09T00:14:48.852Z,1006.87
2019-03-09T00:15:48.868Z,1006.86
2019-03-09T00:16:48.882Z,1006.83
2019-03-09T00:17:48.898Z,1006.78
2019-03-09T00:18:48.913Z,1006.77
2019-03-09T00:19:48.929Z,1006.8
2019-03-09T00:20:48.945Z,1006.76
2019-03-09T00:21:48.959Z,1006.72
2019-03-09T00:22:48.974Z,1006.72
2019-03-09T00:23:48.991Z,1006.69
2019-03-09T00:24:49.005Z,1006.65
2019-03-09T00:25:49.020Z,1006.65
2019-03-09T00:26:49.038Z,1006.69
2019-03-09T00:27:49.051Z,1006.69
2019-03-09T00:29:49.082Z,1006.68
2019-03-09T00:30:49.198Z,1006.61
2019-03-09T00:31:49.112Z,1006.58
2019-03-09T00:32:49.127Z,1006.6
2019-03-09T00:33:49.143Z,1006.51
2019-03-09T00:34:49.159Z,1006.51
2019-03-09T00:35:49.191Z,1006.44
2019-03-09T00:36:49.189Z,1006.47
2019-03-09T00:37:49.204Z,1006.46
2019-03-09T00:38:49.219Z,1006.42
2019-03-09T00:39:49.235Z,1006.47
2019-03-09T00:40:49.250Z,1006.45
2019-03-09T00:41:49.265Z,1006.49
2019-03-09T00:42:49.281Z,1006.51
2019-03-09T00:43:49.296Z,1006.46
2019-03-09T00:45:49.327Z,1006.44
2019-03-09T00:46:49.352Z,1006.43
2019-03-09T00:47:49.357Z,1006.4
2019-03-09T00:48:49.415Z,1006.41
2019-03-09T00:49:49.423Z,1006.38
2019-03-09T00:50:49.402Z,1006.37
2019-03-09T00:51:49.420Z,1006.36
2019-03-09T00:52:49.433Z,1006.35
2019-03-09T00:53:49.448Z,1006.27
2019-03-09T00:54:49.464Z,1006.34
2019-03-09T00:55:49.485Z,1006.31
2019-03-09T00:56:49.495Z,1006.27
2019-03-09T00:57:49.514Z,1006.22
2019-03-09T00:58:49.525Z,1006.21
2019-03-09T00:59:49.541Z,1006.19
2019-03-09T01:01:49.576Z,1006.2
2019-03-09T01:02:51.113Z,1006.18
2019-03-09T01:03:49.602Z,1006.24
2019-03-09T01:04:49.616Z,1006.21
2019-03-09T01:05:49.632Z,1006.21
2019-03-09T01:06:49.648Z,1006.2
2019-03-09T01:07:49.663Z,1006.17
2019-03-09T01:08:49.678Z,1006.11
2019-03-09T01:09:49.717Z,1006.18
2019-03-09T01:10:49.709Z,1006.16
2019-03-09T01:11:49.724Z,1006.15
2019-03-09T01:12:49.740Z,1006.15
2019-03-09T01:13:49.755Z,1006.16
2019-03-09T01:14:49.774Z,1006.14
2019-03-09T01:15:49.785Z,1006.17
2019-03-09T01:17:49.816Z,1006.04
2019-03-09T01:18:49.832Z,1006.05
2019-03-09T01:19:49.847Z,1006.05
2019-03-09T01:20:49.862Z,1005.99
2019-03-09T01:21:49.878Z,1005.93
2019-03-09T01:22:49.892Z,1005.88
2019-03-09T01:23:49.908Z,1005.92
2019-03-09T01:24:49.924Z,1005.89
2019-03-09T01:25:49.939Z,1005.85
2019-03-09T01:26:49.954Z,1005.85
2019-03-09T01:27:49.970Z,1005.83
2019-03-09T01:28:49.985Z,1005.76
2019-03-09T01:29:50.001Z,1005.77
2019-03-09T01:30:50.021Z,1005.69
2019-03-09T01:32:50.048Z,1005.66
2019-03-09T01:33:50.062Z,1005.66
2019-03-09T01:34:50.078Z,1005.6
2019-03-09T01:35:50.094Z,1005.66
2019-03-09T01:36:50.109Z,1005.6
2019-03-09T01:37:50.124Z,1005.54
2019-03-09T01:38:50.139Z,1005.64
2019-03-09T01:39:50.155Z,1005.57
2019-03-09T01:40:50.170Z,1005.54
2019-03-09T01:41:50.186Z,1005.51
2019-03-09T01:42:50.201Z,1005.48
2019-03-09T01:43:50.217Z,1005.43
2019-03-09T01:44:50.234Z,1005.4
2019-03-09T01:45:50.248Z,1005.39
2019-03-09T01:46:50.263Z,1005.35
2019-03-09T01:47:50.284Z,1005.21
2019-03-09T01:48:50.308Z,1005.11
2019-03-09T01:49:50.309Z,1005.16
2019-03-09T01:50:50.325Z,1005.15
2019-03-09T01:51:50.342Z,1005.12
2019-03-09T01:52:50.356Z,1005.09
2019-03-09T01:53:50.370Z,1005.11
2019-03-09T01:54:50.415Z,1005.07
2019-03-09T01:55:50.401Z,1005.04
2019-03-09T01:56:50.418Z,1005.06
2019-03-09T01:57:50.432Z,1005.05
2019-03-09T01:58:50.451Z,1005.04
2019-03-09T01:59:50.462Z,1004.99
2019-03-09T02:00:50.478Z,1005.02
2019-03-09T02:01:50.493Z,1004.95
2019-03-09T02:02:50.509Z,1004.97
2019-03-09T02:04:50.540Z,1004.95
2019-03-09T02:05:50.555Z,1004.92
2019-03-09T02:06:50.570Z,1004.88
2019-03-09T02:07:50.586Z,1004.9
2019-03-09T02:08:50.601Z,1004.89
2019-03-09T02:09:50.619Z,1004.89
2019-03-09T02:10:50.632Z,1004.87
2019-03-09T02:11:50.647Z,1004.84
2019-03-09T02:12:50.662Z,1004.78
2019-03-09T02:13:50.677Z,1004.76
2019-03-09T02:14:50.693Z,1004.73
2019-03-09T02:15:50.708Z,1004.71
2019-03-09T02:16:50.724Z,1004.7
2019-03-09T02:17:50.738Z,1004.67
2019-03-09T02:18:50.757Z,1004.68
2019-03-09T02:20:50.785Z,1004.62
2019-03-09T02:21:50.800Z,1004.6
2019-03-09T02:22:50.815Z,1004.62
2019-03-09T02:23:50.832Z,1004.64
2019-03-09T02:24:50.846Z,1004.59
2019-03-09T02:25:50.861Z,1004.65
2019-03-09T02:26:50.877Z,1004.62
2019-03-09T02:27:50.893Z,1004.62
2019-03-09T02:28:50.907Z,1004.6
2019-03-09T02:29:50.923Z,1004.56
2019-03-09T02:30:50.938Z,1004.56
2019-03-09T02:31:50.954Z,1004.56
2019-03-09T02:32:50.970Z,1004.53
2019-03-09T02:33:50.984Z,1004.46
2019-03-09T02:34:51.000Z,1004.49
2019-03-09T02:36:51.032Z,1004.48
2019-03-09T02:37:51.054Z,1004.44
2019-03-09T02:38:51.065Z,1004.38
2019-03-09T02:39:51.084Z,1004.42
2019-03-09T02:40:51.091Z,1004.37
2019-03-09T02:41:51.110Z,1004.34
2019-03-09T02:42:51.124Z,1004.33
2019-03-09T02:43:51.139Z,1004.3
2019-03-09T02:44:51.154Z,1004.31
2019-03-09T02:45:51.169Z,1004.24
2019-03-09T02:46:51.185Z,1004.22
2019-03-09T02:47:51.199Z,1004.1
2019-03-09T02:48:51.216Z,1004.17
2019-03-09T02:49:51.231Z,1004.21
2019-03-09T02:50:51.245Z,1004.23
2019-03-09T02:52:51.276Z,1004.23
2019-03-09T02:53:51.292Z,1004.16
2019-03-09T02:54:51.307Z,1004.12
2019-03-09T02:55:51.326Z,1004.1
2019-03-09T02:56:51.339Z,1004.07
2019-03-09T02:57:51.353Z,1004.08
2019-03-09T02:58:51.384Z,1004.05
2019-03-09T02:59:51.384Z,1003.97
2019-03-09T03:00:51.400Z,1003.91
2019-03-09T03:01:51.417Z,1003.89
2019-03-09T03:02:51.465Z,1003.83
2019-03-09T03:03:51.460Z,1003.81
2019-03-09T03:04:51.468Z,1003.75
2019-03-09T03:05:51.478Z,1003.8
2019-03-09T03:07:51.509Z,1003.78
2019-03-09T03:08:51.523Z,1003.78
2019-03-09T03:09:51.541Z,1003.8
2019-03-09T03:10:51.557Z,1003.79
2019-03-09T03:11:51.571Z,1003.78
2019-03-09T03:12:51.585Z,1003.75
2019-03-09T03:13:51.603Z,1003.73
2019-03-09T03:14:51.617Z,1003.71
2019-03-09T03:15:51.633Z,1003.72
2019-03-09T03:16:51.659Z,1003.57
2019-03-09T03:17:51.671Z,1003.58
2019-03-09T03:18:51.693Z,1003.55
2019-03-09T03:19:51.695Z,1003.51
2019-03-09T03:20:51.710Z,1003.48
2019-03-09T03:21:51.725Z,1003.44
2019-03-09T03:22:51.742Z,1003.42
2019-03-09T03:23:51.757Z,1003.41
2019-03-09T03:24:51.772Z,1003.36
2019-03-09T03:25:51.789Z,1003.27
2019-03-09T03:26:51.803Z,1003.26
2019-03-09T03:27:51.818Z,1003.31
2019-03-09T03:28:51.836Z,1003.24
2019-03-09T03:29:51.852Z,1003.16
2019-03-09T03:30:51.870Z,1003.14
2019-03-09T03:31:51.927Z,1003.12
2019-03-09T03:32:51.898Z,1003.05
2019-03-09T03:33:51.913Z,1003.04
2019-03-09T03:34:51.928Z,1003
2019-03-09T03:35:51.964Z,1002.98
2019-03-09T03:36:51.962Z,1003
2019-03-09T03:37:51.997Z,1002.95
2019-03-09T03:39:52.025Z,1002.88
2019-03-09T03:40:52.022Z,1002.89
2019-03-09T03:41:52.039Z,1002.83
2019-03-09T03:42:52.051Z,1002.85
2019-03-09T03:43:52.071Z,1002.81
2019-03-09T03:44:52.088Z,1002.78
2019-03-09T03:45:52.100Z,1002.77
2019-03-09T03:46:52.116Z,1002.69
2019-03-09T03:47:52.131Z,1002.68
2019-03-09T03:48:52.146Z,1002.66
2019-03-09T03:49:52.162Z,1002.63
2019-03-09T03:50:52.186Z,1002.62
2019-03-09T03:51:52.192Z,1002.62
2019-03-09T03:52:52.208Z,1002.57
2019-03-09T03:53:52.224Z,1002.55
2019-03-09T03:55:52.255Z,1002.58
2019-03-09T03:56:52.278Z,1002.52
2019-03-09T03:57:52.296Z,1002.51
2019-03-09T03:58:52.308Z,1002.44
2019-03-09T03:59:52.318Z,1002.52
2019-03-09T04:00:52.335Z,1002.48
2019-03-09T04:01:52.350Z,1002.49
2019-03-09T04:02:52.366Z,1002.43
2019-03-09T04:03:52.380Z,1002.49
2019-03-09T04:04:52.469Z,1002.42
2019-03-09T04:05:52.412Z,1002.45
2019-03-09T04:06:52.430Z,1002.35
2019-03-09T04:07:52.444Z,1002.34
2019-03-09T04:08:52.461Z,1002.29
2019-03-09T04:09:52.626Z,1002.29
2019-03-09T04:11:52.509Z,1002.21
2019-03-09T04:12:52.525Z,1002.14
2019-03-09T04:13:52.537Z,1002.12
2019-03-09T04:14:52.553Z,1002.12
2019-03-09T04:15:52.569Z,1002.11
2019-03-09T04:16:52.585Z,1002.11
2019-03-09T04:17:52.601Z,1002.09
2019-03-09T04:18:52.617Z,1002.11
2019-03-09T04:19:52.632Z,1002.06
2019-03-09T04:20:52.650Z,1002.05
2019-03-09T04:21:52.663Z,1002.05
2019-03-09T04:22:52.779Z,1002.01
2019-03-09T04:23:52.695Z,1001.96
2019-03-09T04:24:52.711Z,1001.86
2019-03-09T04:25:52.725Z,1001.88
2019-03-09T04:27:52.757Z,1001.8
2019-03-09T04:28:52.780Z,1001.8
2019-03-09T04:29:52.789Z,1001.73
2019-03-09T04:30:52.804Z,1001.77
2019-03-09T04:31:52.820Z,1001.75
2019-03-09T04:32:52.835Z,1001.74
2019-03-09T04:33:52.851Z,1001.66
2019-03-09T04:34:52.866Z,1001.61
2019-03-09T04:35:52.883Z,1001.61
2019-03-09T04:36:52.898Z,1001.68
2019-03-09T04:37:52.914Z,1001.6
2019-03-09T04:38:52.929Z,1001.61
2019-03-09T04:39:52.953Z,1001.66
2019-03-09T04:40:52.969Z,1001.61
2019-03-09T04:42:52.993Z,1001.6
2019-03-09T04:43:53.007Z,1001.54
2019-03-09T04:44:53.025Z,1001.5
2019-03-09T04:45:53.040Z,1001.43
2019-03-09T04:46:53.056Z,1001.44
2019-03-09T04:47:53.073Z,1001.4
2019-03-09T04:48:53.087Z,1001.28
2019-03-09T04:49:53.105Z,1001.32
2019-03-09T04:50:53.118Z,1001.28
2019-03-09T04:51:53.133Z,1001.28
2019-03-09T04:52:53.149Z,1001.17
2019-03-09T04:53:53.168Z,1001.12
2019-03-09T04:54:53.283Z,1001.1
2019-03-09T04:55:53.196Z,1001.05
2019-03-09T04:56:53.212Z,1001.01
2019-03-09T04:57:53.229Z,1000.99
2019-03-09T04:58:53.243Z,1001.01
2019-03-09T04:59:53.262Z,1000.87
2019-03-09T05:00:53.275Z,1000.99
2019-03-09T05:01:53.291Z,1000.9
2019-03-09T05:02:53.314Z,1000.84
2019-03-09T05:03:53.323Z,1000.72
2019-03-09T05:04:53.339Z,1000.78
2019-03-09T05:05:53.353Z,1000.83
2019-03-09T05:06:53.369Z,1000.77
2019-03-09T05:07:53.387Z,1000.9
2019-03-09T05:08:53.402Z,1000.82
2019-03-09T05:09:53.436Z,1000.73
2019-03-09T05:10:53.433Z,1000.73
2019-03-09T05:11:53.449Z,1000.7
2019-03-09T05:12:53.464Z,1000.62
2019-03-09T05:14:53.496Z,1000.62
2019-03-09T05:15:53.512Z,1000.52
2019-03-09T05:16:53.528Z,1000.52
2019-03-09T05:17:53.543Z,1000.55
2019-03-09T05:18:53.559Z,1000.49
2019-03-09T05:19:53.579Z,1000.49
2019-03-09T05:20:53.591Z,1000.44
2019-03-09T05:21:53.607Z,1000.42
2019-03-09T05:22:53.623Z,1000.4
2019-03-09T05:23:53.647Z,1000.46
2019-03-09T05:24:53.654Z,1000.35
2019-03-09T05:25:53.670Z,1000.37
2019-03-09T05:26:53.685Z,1000.26
2019-03-09T05:27:53.702Z,1000.28
2019-03-09T05:28:53.717Z,1000.21
2019-03-09T05:30:53.749Z,1000.21
2019-03-09T05:31:53.764Z,1000.21
2019-03-09T05:32:53.781Z,1000.13
2019-03-09T05:33:53.796Z,1000.07
2019-03-09T05:34:53.815Z,1000.1
2019-03-09T05:35:53.834Z,1000.03
2019-03-09T05:36:53.843Z,1000.08
2019-03-09T05:37:53.859Z,1000.01
2019-03-09T05:38:53.874Z,999.99
2019-03-09T05:39:53.894Z,999.98
2019-03-09T05:40:53.910Z,1000
2019-03-09T05:41:53.923Z,999.96
2019-03-09T05:42:53.939Z,999.86
2019-03-09T05:43:53.954Z,999.97
2019-03-09T05:44:53.970Z,999.92
2019-03-09T05:46:54.001Z,999.76
2019-03-09T05:47:54.017Z,999.76
2019-03-09T05:48:54.033Z,999.8
2019-03-09T05:49:54.051Z,999.73
2019-03-09T05:50:54.064Z,999.72
2019-03-09T05:51:54.080Z,999.64
2019-03-09T05:52:54.099Z,999.65
2019-03-09T05:53:54.111Z,999.66
2019-03-09T05:54:54.128Z,999.61
2019-03-09T05:55:54.143Z,999.72
2019-03-09T05:56:54.158Z,999.64
2019-03-09T05:57:54.173Z,999.6
2019-03-09T05:58:54.208Z,999.56
2019-03-09T05:59:54.206Z,999.6
2019-03-09T06:00:54.220Z,999.59
2019-03-09T06:02:54.254Z,999.53
2019-03-09T06:03:54.269Z,999.49
2019-03-09T06:04:54.284Z,999.55
2019-03-09T06:05:54.300Z,999.54
2019-03-09T06:06:54.316Z,999.48
2019-03-09T06:07:54.331Z,999.58
2019-03-09T06:08:54.347Z,999.55
2019-03-09T06:09:54.363Z,999.52
2019-03-09T06:10:54.379Z,999.59
2019-03-09T06:11:54.394Z,999.53
2019-03-09T06:12:54.410Z,999.5
2019-03-09T06:13:54.429Z,999.37
2019-03-09T06:14:54.442Z,999.49
2019-03-09T06:15:54.458Z,999.42
2019-03-09T06:17:54.490Z,999.35
2019-03-09T06:18:54.505Z,999.35
2019-03-09T06:19:54.521Z,999.47
2019-03-09T06:20:54.539Z,999.5
2019-03-09T06:21:54.553Z,999.46
2019-03-09T06:22:54.568Z,999.44
2019-03-09T06:23:54.584Z,999.28
2019-03-09T06:24:54.600Z,999.33
2019-03-09T06:25:54.615Z,999.37
2019-03-09T06:26:54.630Z,999.25
2019-03-09T06:27:54.646Z,999.33
2019-03-09T06:28:54.662Z,999.27
2019-03-09T06:29:54.677Z,999.27
2019-03-09T06:30:54.692Z,999.23
2019-03-09T06:31:54.708Z,999.16
2019-03-09T06:32:54.725Z,999.15
2019-03-09T06:33:54.739Z,999.14
2019-03-09T06:34:54.754Z,999.18
2019-03-09T06:35:54.771Z,999.18
2019-03-09T06:36:54.786Z,999.19
2019-03-09T06:37:55.799Z,999.14
2019-03-09T06:38:54.817Z,999.12
2019-03-09T06:39:54.833Z,998.95
2019-03-09T06:41:02.614Z,999
2019-03-09T06:41:54.864Z,999.1
2019-03-09T06:42:54.879Z,999.12
2019-03-09T06:43:54.895Z,999.04
2019-03-09T06:44:54.910Z,999.04
2019-03-09T06:45:54.926Z,999
2019-03-09T06:46:54.946Z,998.82
2019-03-09T06:47:54.958Z,998.91
2019-03-09T06:49:54.987Z,998.91
2019-03-09T06:50:55.004Z,998.92
2019-03-09T06:51:55.021Z,998.83
2019-03-09T06:52:55.034Z,998.9
2019-03-09T06:53:55.054Z,998.88
2019-03-09T06:54:55.066Z,998.92
2019-03-09T06:55:55.082Z,998.95
2019-03-09T06:56:55.097Z,999.01
2019-03-09T06:57:55.113Z,999.01
2019-03-09T06:58:55.132Z,999.04
2019-03-09T06:59:55.143Z,998.86
2019-03-09T07:00:55.159Z,998.75
2019-03-09T07:01:55.175Z,998.66
2019-03-09T07:02:55.189Z,998.53
2019-03-09T07:03:55.205Z,998.59
2019-03-09T07:05:55.236Z,998.68
2019-03-09T07:06:55.252Z,998.66
2019-03-09T07:07:55.267Z,998.8
2019-03-09T07:08:55.284Z,998.73
2019-03-09T07:09:55.299Z,998.73
2019-03-09T07:10:55.315Z,998.64
2019-03-09T07:11:55.330Z,998.55
2019-03-09T07:12:55.345Z,998.48
2019-03-09T07:13:55.360Z,998.52
2019-03-09T07:14:55.376Z,998.57
2019-03-09T07:15:55.392Z,998.59
2019-03-09T07:16:55.408Z,998.55
2019-03-09T07:17:55.423Z,998.55
2019-03-09T07:18:55.438Z,998.5
2019-03-09T07:19:55.454Z,998.51
2019-03-09T07:21:55.485Z,998.5
2019-03-09T07:22:55.501Z,998.48
2019-03-09T07:23:55.516Z,998.47
2019-03-09T07:24:55.544Z,998.46
2019-03-09T07:25:55.547Z,998.42
2019-03-09T07:26:55.563Z,998.21
2019-03-09T07:27:55.580Z,998.41
2019-03-09T07:28:55.593Z,998.41
2019-03-09T07:29:55.610Z,998.44
2019-03-09T07:30:55.625Z,998.49
2019-03-09T07:31:55.690Z,998.46
2019-03-09T07:32:55.656Z,998.39
2019-03-09T07:33:55.672Z,998.32
2019-03-09T07:34:55.690Z,998.43
2019-03-09T07:35:55.702Z,998.41
2019-03-09T07:37:55.735Z,998.51
2019-03-09T07:38:55.751Z,998.47
2019-03-09T07:39:55.765Z,998.53
2019-03-09T07:40:55.782Z,998.53
2019-03-09T07:41:55.798Z,998.41
2019-03-09T07:42:55.813Z,998.36
2019-03-09T07:43:55.828Z,998.28
2019-03-09T07:44:55.845Z,998.37
2019-03-09T07:45:55.860Z,998.39
2019-03-09T07:46:55.875Z,998.37
2019-03-09T07:47:55.891Z,998.43
2019-03-09T07:48:55.910Z,998.37
2019-03-09T07:49:55.923Z,998.44
2019-03-09T07:50:55.941Z,998.45
2019-03-09T07:52:55.971Z,998.33
2019-03-09T07:53:55.987Z,998.34
2019-03-09T07:54:56.003Z,998.42
2019-03-09T07:55:56.019Z,998.33
2019-03-09T07:56:56.035Z,998.39
2019-03-09T07:57:56.050Z,998.39
2019-03-09T07:58:56.066Z,998.4
2019-03-09T07:59:56.084Z,998.44
2019-03-09T08:00:56.098Z,998.44
2019-03-09T08:01:56.114Z,998.37
2019-03-09T08:02:56.131Z,998.41
2019-03-09T08:03:56.146Z,998.45
2019-03-09T08:04:56.161Z,998.5
2019-03-09T08:05:56.177Z,998.52
2019-03-09T08:06:56.193Z,998.36
2019-03-09T08:07:56.210Z,998.38
2019-03-09T08:08:56.225Z,998.48
2019-03-09T08:09:56.241Z,998.41
2019-03-09T08:10:56.257Z,998.58
2019-03-09T08:11:56.272Z,998.5
2019-03-09T08:12:56.294Z,998.58
2019-03-09T08:13:56.305Z,998.67
2019-03-09T08:14:56.322Z,998.58
2019-03-09T08:15:56.338Z,998.53
2019-03-09T08:16:56.353Z,998.26
2019-03-09T08:17:56.369Z,998.58
2019-03-09T08:18:56.385Z,998.59
2019-03-09T08:19:56.408Z,998.86
2019-03-09T08:20:56.416Z,998.69
2019-03-09T08:21:56.433Z,998.78
2019-03-09T08:22:56.455Z,998.74
2019-03-09T08:24:56.481Z,998.78
2019-03-09T08:25:56.498Z,998.61
2019-03-09T08:26:56.512Z,998.64
2019-03-09T08:27:56.529Z,998.64
2019-03-09T08:28:56.545Z,998.71
2019-03-09T08:29:56.608Z,998.69
2019-03-09T08:30:56.577Z,998.79
2019-03-09T08:31:56.593Z,998.78
2019-03-09T08:32:56.610Z,998.69
2019-03-09T08:33:56.640Z,998.9
2019-03-09T08:34:56.643Z,998.82
2019-03-09T08:35:56.661Z,998.84
2019-03-09T08:36:56.677Z,998.8
2019-03-09T08:37:56.715Z,998.91
2019-03-09T08:38:56.720Z,998.81
2019-03-09T08:40:56.742Z,998.91
2019-03-09T08:41:56.761Z,998.82
2019-03-09T08:42:56.776Z,998.65
2019-03-09T08:43:56.793Z,998.97
2019-03-09T08:44:56.822Z,998.95
2019-03-09T08:45:56.826Z,999.12
2019-03-09T08:46:56.843Z,999.12
2019-03-09T08:47:56.867Z,999.29
2019-03-09T08:48:56.877Z,999.2
2019-03-09T08:49:56.895Z,999.31
2019-03-09T08:50:56.914Z,999.19
2019-03-09T08:51:56.928Z,999.21
2019-03-09T08:52:56.944Z,999.19
2019-03-09T08:53:56.980Z,999.15
2019-03-09T08:54:56.978Z,999.12
2019-03-09T08:56:57.011Z,999.03
2019-03-09T08:57:57.027Z,999.13
2019-03-09T08:58:57.063Z,999.12
2019-03-09T08:59:57.061Z,999.1
2019-03-09T09:00:57.086Z,999.18
2019-03-09T09:01:57.103Z,999.31
2019-03-09T09:02:57.112Z,999.12
2019-03-09T09:03:57.129Z,999.16
2019-03-09T09:04:57.146Z,999.23
2019-03-09T09:05:57.162Z,999.38
2019-03-09T09:06:57.181Z,999.24
2019-03-09T09:07:57.203Z,999.07
2019-03-09T09:08:57.214Z,999.18
2019-03-09T09:09:57.230Z,999.19
2019-03-09T09:10:57.247Z,999.1
2019-03-09T09:12:57.283Z,999.09
2019-03-09T09:13:57.301Z,999.17
2019-03-09T09:14:57.318Z,999.22
2019-03-09T09:15:57.336Z,999.25
2019-03-09T09:16:57.355Z,999.14
2019-03-09T09:17:57.376Z,999.13
2019-03-09T09:18:57.405Z,999.1
2019-03-09T09:19:57.412Z,999.22
2019-03-09T09:20:57.430Z,999.15
2019-03-09T09:21:57.448Z,999.21
2019-03-09T09:22:57.468Z,999.19
2019-03-09T09:23:57.487Z,999.18
2019-03-09T09:24:57.507Z,999.18
2019-03-09T09:25:57.526Z,999.24
2019-03-09T09:27:57.569Z,999.36
2019-03-09T09:28:57.585Z,999.32
2019-03-09T09:29:57.605Z,999.24
2019-03-09T09:30:57.625Z,999.35
2019-03-09T09:31:57.646Z,999.26
2019-03-09T09:32:57.664Z,999.45
2019-03-09T09:33:58.520Z,999.37
2019-03-09T09:34:57.706Z,999.37
2019-03-09T09:35:57.725Z,999.42
2019-03-09T09:36:57.746Z,999.5
2019-03-09T09:37:57.766Z,999.35
2019-03-09T09:38:57.787Z,999.46
2019-03-09T09:39:57.807Z,999.43
2019-03-09T09:40:57.829Z,999.53
2019-03-09T09:41:59.589Z,999.44
2019-03-09T09:42:57.870Z,999.45
2019-03-09T09:43:57.888Z,999.48
2019-03-09T09:44:57.908Z,999.57
2019-03-09T09:45:57.928Z,999.64
2019-03-09T09:46:57.947Z,999.69
2019-03-09T09:47:57.968Z,999.52
2019-03-09T09:48:57.988Z,999.55
2019-03-09T09:49:58.009Z,999.55
2019-03-09T09:50:58.028Z,999.64
2019-03-09T09:51:58.048Z,999.43
2019-03-09T09:52:58.069Z,999.58
2019-03-09T09:53:58.090Z,999.73
2019-03-09T09:54:58.108Z,999.49
2019-03-09T09:55:58.129Z,999.49
2019-03-09T09:56:58.149Z,999.58
2019-03-09T09:57:58.170Z,999.66
2019-03-09T09:59:58.210Z,999.57
2019-03-09T10:00:58.231Z,999.6
2019-03-09T10:01:58.250Z,999.71
2019-03-09T10:02:58.271Z,999.64
2019-03-09T10:03:58.292Z,999.47
2019-03-09T10:04:58.313Z,999.45
2019-03-09T10:05:58.332Z,999.61
2019-03-09T10:06:58.355Z,999.42
2019-03-09T10:07:58.374Z,999.53
2019-03-09T10:08:58.394Z,999.44
2019-03-09T10:09:58.417Z,999.4
2019-03-09T10:10:58.437Z,999.59
2019-03-09T10:11:58.459Z,999.53
2019-03-09T10:12:58.479Z,999.54
2019-03-09T10:13:58.499Z,999.57
2019-03-09T10:15:58.543Z,999.52
2019-03-09T10:16:58.564Z,999.74
2019-03-09T10:17:58.585Z,999.63
2019-03-09T10:18:58.607Z,999.67
2019-03-09T10:19:58.627Z,999.8
2019-03-09T10:20:58.649Z,999.74
2019-03-09T10:21:58.671Z,999.89
2019-03-09T10:23:03.977Z,999.77
2019-03-09T10:23:58.713Z,1000.04
2019-03-09T10:24:58.735Z,999.7
2019-03-09T10:25:58.756Z,999.68
2019-03-09T10:26:58.777Z,999.83
2019-03-09T10:27:58.798Z,999.94
2019-03-09T10:28:58.825Z,999.82
2019-03-09T10:29:58.856Z,999.88
2019-03-09T10:31:58.880Z,999.69
2019-03-09T10:32:58.901Z,999.9
2019-03-09T10:33:58.922Z,999.81
2019-03-09T10:34:58.941Z,1000.02
2019-03-09T10:35:58.965Z,999.89
2019-03-09T10:36:58.983Z,1000.15
2019-03-09T10:37:59.003Z,1000
2019-03-09T10:38:59.022Z,999.81
2019-03-09T10:39:59.042Z,999.89
2019-03-09T10:40:59.063Z,1000.07
2019-03-09T10:41:59.082Z,999.96
2019-03-09T10:42:59.102Z,1000.06
2019-03-09T10:43:59.123Z,1000.06
2019-03-09T10:44:59.143Z,999.99
2019-03-09T10:45:59.162Z,1000.05
2019-03-09T10:47:59.202Z,999.93
2019-03-09T10:48:59.222Z,1000.31
2019-03-09T10:49:59.241Z,1000.43
2019-03-09T10:50:59.260Z,1000.24
2019-03-09T10:51:59.281Z,1000.21
2019-03-09T10:52:59.299Z,1000.27
2019-03-09T10:53:59.319Z,1000.17
2019-03-09T10:54:59.346Z,1000.27
2019-03-09T10:55:59.359Z,1000.28
2019-03-09T10:56:59.377Z,1000.22
2019-03-09T10:57:59.397Z,1000.32
2019-03-09T10:58:59.417Z,1000.3
2019-03-09T10:59:59.437Z,1000.21
2019-03-09T11:00:59.456Z,1000.24
2019-03-09T11:02:59.498Z,1000.2
2019-03-09T11:03:59.514Z,1000.23
2019-03-09T11:04:59.535Z,1000.27
2019-03-09T11:05:59.554Z,1000.25
2019-03-09T11:06:59.574Z,1000.51
2019-03-09T11:07:59.593Z,1000.18
2019-03-09T11:08:59.612Z,1000.26
2019-03-09T11:09:59.633Z,1000.11
2019-03-09T11:10:59.651Z,1000.25
2019-03-09T11:11:59.671Z,1000.13
2019-03-09T11:12:59.690Z,1000.34
2019-03-09T11:13:59.710Z,1000.24
2019-03-09T11:14:59.729Z,1000.16
2019-03-09T11:15:59.749Z,1000.08
2019-03-09T11:16:59.769Z,1000.26
2019-03-09T11:17:59.789Z,1000.17
2019-03-09T11:18:59.830Z,1000.12
2019-03-09T11:19:59.827Z,1000.39
2019-03-09T11:20:59.846Z,1000.23
2019-03-09T11:21:59.865Z,1000.16
2019-03-09T11:22:59.885Z,1000.16
2019-03-09T11:23:59.904Z,1000.19
2019-03-09T11:25:03.498Z,1000.14
2019-03-09T11:25:59.944Z,1000.12
2019-03-09T11:26:59.963Z,1000.18
2019-03-09T11:27:59.983Z,1000.27
2019-03-09T11:29:00.005Z,1000.21
2019-03-09T11:30:00.022Z,1000.24
2019-03-09T11:31:00.041Z,1000.15
2019-03-09T11:32:00.062Z,1000.24
2019-03-09T11:33:00.081Z,1000.21
2019-03-09T11:35:00.236Z,1000.29
2019-03-09T11:36:00.139Z,1000.31
2019-03-09T11:37:00.158Z,1000.26
2019-03-09T11:38:00.178Z,1000.13
2019-03-09T11:39:00.198Z,1000.15
2019-03-09T11:40:00.413Z,1000.07
2019-03-09T11:41:00.893Z,1000.05
2019-03-09T11:42:00.264Z,1000.04
2019-03-09T11:43:00.276Z,999.94
2019-03-09T11:44:00.294Z,1000.09
2019-03-09T11:45:00.383Z,1000.04
2019-03-09T11:46:00.336Z,1000.06
2019-03-09T11:47:00.354Z,1000.19
2019-03-09T11:48:00.373Z,1000.03
2019-03-09T11:49:00.393Z,1000.12
2019-03-09T11:51:00.432Z,1000.11
2019-03-09T11:52:00.451Z,1000.15
2019-03-09T11:53:00.479Z,1000.03
2019-03-09T11:54:00.491Z,1000.16
2019-03-09T11:55:00.510Z,1000.07
2019-03-09T11:56:00.530Z,1000.2
2019-03-09T11:57:00.550Z,1000.03
2019-03-09T11:58:00.570Z,1000.14
2019-03-09T11:59:00.588Z,1000.1
2019-03-09T12:00:00.608Z,1000.19
2019-03-09T12:01:00.628Z,999.86
2019-03-09T12:02:00.649Z,1000.1
2019-03-09T12:03:00.667Z,999.98
2019-03-09T12:04:00.698Z,1000.06
2019-03-09T12:05:00.707Z,999.96
2019-03-09T12:07:00.746Z,999.91
2019-03-09T12:08:00.766Z,1000.09
2019-03-09T12:09:00.786Z,1000.01
2019-03-09T12:10:00.805Z,999.99
2019-03-09T12:11:00.829Z,999.86
2019-03-09T12:12:00.868Z,999.85
2019-03-09T12:13:00.865Z,999.91
2019-03-09T12:14:00.884Z,1000.01
2019-03-09T12:15:00.906Z,1000.05
2019-03-09T12:16:00.924Z,1000.09
2019-03-09T12:17:00.953Z,999.84
2019-03-09T12:18:00.963Z,999.91
2019-03-09T12:19:00.983Z,999.99
2019-03-09T12:20:01.003Z,999.68
2019-03-09T12:21:01.030Z,999.98
2019-03-09T12:23:01.468Z,999.79
2019-03-09T12:24:01.082Z,999.91
2019-03-09T12:25:01.105Z,999.89
2019-03-09T12:26:01.120Z,999.99
2019-03-09T12:27:01.141Z,999.97
2019-03-09T12:28:01.159Z,1000.04
2019-03-09T12:29:01.179Z,1000.01
2019-03-09T12:30:03.732Z,999.97
2019-03-09T12:31:01.223Z,999.94
2019-03-09T12:32:01.239Z,1000
2019-03-09T12:33:01.258Z,1000.09
2019-03-09T12:34:01.277Z,1000
2019-03-09T12:35:01.298Z,999.98
2019-03-09T12:36:01.317Z,999.9
2019-03-09T12:38:01.357Z,999.83
2019-03-09T12:39:01.376Z,1000.09
2019-03-09T12:40:01.420Z,999.93
2019-03-09T12:41:01.416Z,999.87
2019-03-09T12:42:01.477Z,999.74
2019-03-09T12:43:01.455Z,999.7
2019-03-09T12:44:01.529Z,999.87
2019-03-09T12:45:01.501Z,999.93
2019-03-09T12:46:01.513Z,999.97
2019-03-09T12:47:01.533Z,999.88
2019-03-09T12:48:01.553Z,999.93
2019-03-09T12:49:01.577Z,999.79
2019-03-09T12:50:01.592Z,999.97
2019-03-09T12:51:01.611Z,999.85
2019-03-09T12:52:01.631Z,999.8
2019-03-09T12:53:01.655Z,999.88
2019-03-09T12:54:01.671Z,999.98
2019-03-09T12:55:01.691Z,999.75
2019-03-09T12:56:01.711Z,999.84
2019-03-09T12:57:01.733Z,999.91
2019-03-09T12:58:01.750Z,999.87
2019-03-09T12:59:01.770Z,999.88